createdAt,value
2018-05-31T00:01:36.405Z,22.00
2018-05-31T00:04:03.785Z,22.11
2018-05-31T00:06:30.623Z,22.11
2018-05-31T00:08:57.005Z,22.13
2018-05-31T00:11:23.386Z,22.02
2018-05-31T00:13:49.766Z,21.94
2018-05-31T00:16:16.157Z,21.88
2018-05-31T00:18:42.534Z,21.90
2018-05-31T00:21:08.946Z,21.86
2018-05-31T00:23:35.364Z,21.96
2018-05-31T00:26:02.089Z,21.81
2018-05-31T00:28:28.475Z,21.59
2018-05-31T00:30:54.849Z,21.55
2018-05-31T00:33:21.269Z,21.39
2018-05-31T00:35:48.458Z,21.39
2018-05-31T00:38:14.852Z,21.33
2018-05-31T00:40:42.224Z,21.22
2018-05-31T00:43:08.646Z,21.16
2018-05-31T00:45:35.816Z,21.18
2018-05-31T00:48:02.194Z,21.12
2018-05-31T00:50:28.597Z,21.23
2018-05-31T00:52:54.981Z,21.31
2018-05-31T00:55:40.550Z,21.44
2018-05-31T00:58:07.711Z,21.33
2018-05-31T01:00:34.939Z,21.42
2018-05-31T01:03:01.316Z,21.38
2018-05-31T01:05:28.054Z,21.24
2018-05-31T01:07:54.448Z,21.29
2018-05-31T01:10:20.908Z,21.21
2018-05-31T01:12:48.046Z,21.15
2018-05-31T01:15:14.703Z,21.06
2018-05-31T01:17:41.100Z,21.06
2018-05-31T01:20:07.512Z,20.99
2018-05-31T01:22:34.691Z,21.06
2018-05-31T01:25:01.877Z,21.23
2018-05-31T01:27:28.255Z,21.29
2018-05-31T01:29:54.809Z,21.28
2018-05-31T01:32:21.963Z,21.31
2018-05-31T01:34:49.281Z,21.14
2018-05-31T01:37:15.714Z,21.26
2018-05-31T01:39:42.122Z,21.22
2018-05-31T01:42:08.605Z,21.21
2018-05-31T01:44:35.774Z,21.13
2018-05-31T01:47:02.900Z,21.25
2018-05-31T01:49:29.925Z,21.23
2018-05-31T01:51:56.390Z,21.24
2018-05-31T01:54:22.779Z,21.14
2018-05-31T01:56:49.265Z,21.07
2018-05-31T01:59:16.417Z,21.03
2018-05-31T02:01:43.867Z,20.93
2018-05-31T02:04:11.002Z,20.87
2018-05-31T02:06:37.419Z,20.76
2018-05-31T02:09:03.915Z,20.84
2018-05-31T02:11:30.317Z,20.82
2018-05-31T02:13:57.488Z,20.65
2018-05-31T02:16:24.129Z,20.63
2018-05-31T02:18:50.866Z,20.63
2018-05-31T02:21:17.276Z,20.61
2018-05-31T02:23:44.453Z,20.59
2018-05-31T02:26:10.881Z,20.55
2018-05-31T02:28:37.296Z,20.47
2018-05-31T02:31:04.413Z,20.44
2018-05-31T02:33:30.844Z,20.40
2018-05-31T02:35:57.283Z,20.32
2018-05-31T02:38:23.743Z,20.22
2018-05-31T02:40:50.998Z,20.24
2018-05-31T02:43:18.209Z,20.34
2018-05-31T02:45:44.685Z,20.31
2018-05-31T02:48:11.830Z,20.37
2018-05-31T02:50:38.982Z,20.28
2018-05-31T02:53:06.110Z,20.32
2018-05-31T02:55:32.537Z,20.24
2018-05-31T02:57:59.790Z,20.18
2018-05-31T03:00:26.473Z,20.17
2018-05-31T03:02:52.993Z,20.17
2018-05-31T03:05:20.112Z,20.01
2018-05-31T03:07:46.553Z,19.87
2018-05-31T03:10:13.014Z,19.80
2018-05-31T03:12:39.503Z,19.75
2018-05-31T03:15:05.887Z,19.76
2018-05-31T03:17:32.279Z,19.82
2018-05-31T03:19:58.650Z,19.81
2018-05-31T03:22:25.294Z,19.75
2018-05-31T03:24:52.332Z,19.92
2018-05-31T03:27:18.712Z,19.75
2018-05-31T03:29:45.179Z,19.70
2018-05-31T03:32:12.384Z,19.73
2018-05-31T03:34:38.741Z,19.74
2018-05-31T03:37:05.120Z,19.69
2018-05-31T03:39:31.529Z,19.76
2018-05-31T03:41:57.934Z,19.78
2018-05-31T03:44:24.303Z,19.75
2018-05-31T03:46:50.746Z,19.74
2018-05-31T03:49:17.490Z,19.72
2018-05-31T03:51:43.919Z,19.76
2018-05-31T03:54:10.306Z,19.72
2018-05-31T03:56:36.791Z,19.75
2018-05-31T03:59:03.169Z,19.76
2018-05-31T04:01:29.654Z,19.91
2018-05-31T04:03:56.747Z,19.88
2018-05-31T04:06:23.450Z,19.85
2018-05-31T04:08:49.875Z,19.91
2018-05-31T04:11:16.308Z,20.02
2018-05-31T04:13:42.761Z,20.19
2018-05-31T04:16:09.164Z,20.15
2018-05-31T04:18:35.533Z,20.08
2018-05-31T04:21:02.048Z,20.03
2018-05-31T04:23:28.494Z,20.14
2018-05-31T04:25:54.909Z,20.16
2018-05-31T04:28:21.329Z,20.29
2018-05-31T04:30:47.736Z,20.50
2018-05-31T04:33:15.131Z,20.51
2018-05-31T04:35:41.534Z,20.54
2018-05-31T04:38:08.675Z,20.39
2018-05-31T04:40:35.893Z,20.39
2018-05-31T04:43:02.268Z,20.49
2018-05-31T04:45:28.704Z,20.59
2018-05-31T04:47:55.855Z,20.69
2018-05-31T04:50:22.995Z,20.77
2018-05-31T04:52:50.286Z,20.89
2018-05-31T04:55:16.786Z,20.78
2018-05-31T04:57:43.926Z,20.77
2018-05-31T05:00:14.818Z,20.89
2018-05-31T05:02:44.772Z,20.98
2018-05-31T05:05:14.562Z,21.12
2018-05-31T05:07:43.577Z,21.15
2018-05-31T05:10:13.611Z,21.21
2018-05-31T05:12:41.989Z,21.13
2018-05-31T05:15:08.466Z,21.26
2018-05-31T05:17:34.937Z,21.34
2018-05-31T05:20:01.334Z,21.23
2018-05-31T05:22:27.822Z,21.38
2018-05-31T05:24:55.005Z,21.64
2018-05-31T05:27:21.732Z,21.44
2018-05-31T05:29:48.117Z,21.38
2018-05-31T05:32:14.573Z,21.41
2018-05-31T05:34:41.684Z,21.61
2018-05-31T05:37:08.705Z,21.67
2018-05-31T05:39:35.217Z,21.80
2018-05-31T05:42:02.353Z,21.87
2018-05-31T05:44:29.502Z,22.02
2018-05-31T05:46:56.635Z,22.17
2018-05-31T05:49:23.765Z,22.13
2018-05-31T05:51:50.195Z,22.31
2018-05-31T05:54:16.624Z,22.49
2018-05-31T05:56:43.056Z,22.59
2018-05-31T05:59:09.447Z,22.52
2018-05-31T06:01:35.906Z,22.48
2018-05-31T06:04:02.323Z,22.23
2018-05-31T06:06:28.757Z,22.52
2018-05-31T06:08:55.179Z,22.64
2018-05-31T06:11:21.557Z,22.81
2018-05-31T06:13:48.267Z,22.79
2018-05-31T06:16:14.965Z,22.82
2018-05-31T06:18:41.403Z,22.90
2018-05-31T06:21:08.631Z,22.85
2018-05-31T06:23:35.095Z,23.03
2018-05-31T06:26:02.558Z,22.83
2018-05-31T06:28:29.222Z,22.88
2018-05-31T06:30:55.654Z,23.30
2018-05-31T06:33:22.095Z,23.32
2018-05-31T06:35:48.851Z,23.28
2018-05-31T06:38:15.291Z,23.56
2018-05-31T06:40:41.647Z,23.76
2018-05-31T06:43:08.322Z,23.64
2018-05-31T06:45:34.777Z,23.46
2018-05-31T06:48:01.255Z,23.34
2018-05-31T06:50:28.141Z,23.74
2018-05-31T06:52:54.802Z,24.01
2018-05-31T06:55:21.716Z,23.90
2018-05-31T06:57:48.146Z,24.16
2018-05-31T07:00:15.353Z,24.33
2018-05-31T07:02:41.702Z,24.53
2018-05-31T07:05:08.089Z,24.56
2018-05-31T07:07:34.664Z,24.73
2018-05-31T07:10:01.333Z,24.99
2018-05-31T07:12:28.894Z,24.76
2018-05-31T07:14:56.085Z,24.46
2018-05-31T07:17:22.500Z,24.75
2018-05-31T07:19:48.873Z,25.16
2018-05-31T07:22:15.249Z,24.70
2018-05-31T07:24:41.702Z,24.72
2018-05-31T07:27:08.108Z,24.74
2018-05-31T07:29:34.941Z,24.97
2018-05-31T07:32:02.098Z,25.10
2018-05-31T07:34:28.517Z,24.98
2018-05-31T07:36:55.657Z,25.19
2018-05-31T07:39:22.002Z,25.30
2018-05-31T07:41:49.174Z,25.39
2018-05-31T07:44:15.593Z,24.73
2018-05-31T07:46:41.953Z,25.17
2018-05-31T07:49:08.378Z,25.33
2018-05-31T07:51:34.854Z,25.57
2018-05-31T07:54:01.211Z,25.64
2018-05-31T07:56:28.399Z,25.79
2018-05-31T07:58:55.613Z,25.61
2018-05-31T08:01:22.724Z,25.97
2018-05-31T08:03:49.182Z,26.02
2018-05-31T08:06:15.609Z,25.99
2018-05-31T08:08:42.989Z,26.01
2018-05-31T08:11:10.216Z,25.98
2018-05-31T08:13:36.590Z,25.97
2018-05-31T08:16:03.038Z,25.94
2018-05-31T08:18:29.500Z,25.83
2018-05-31T08:20:55.893Z,26.40
2018-05-31T08:23:22.283Z,26.41
2018-05-31T08:25:49.420Z,26.77
2018-05-31T08:28:15.855Z,26.69
2018-05-31T08:30:42.325Z,26.99
2018-05-31T08:33:08.695Z,27.19
2018-05-31T08:35:35.137Z,27.26
2018-05-31T08:38:01.581Z,27.20
2018-05-31T08:40:27.951Z,27.13
2018-05-31T08:42:54.377Z,27.67
2018-05-31T08:45:21.573Z,27.49
2018-05-31T08:47:48.023Z,26.95
2018-05-31T08:50:14.423Z,27.26
2018-05-31T08:52:40.826Z,27.10
2018-05-31T08:55:07.968Z,27.28
2018-05-31T08:57:35.109Z,27.32
2018-05-31T09:00:02.263Z,27.36
2018-05-31T09:02:29.395Z,27.80
2018-05-31T09:04:57.446Z,28.02
2018-05-31T09:07:23.881Z,27.99
2018-05-31T09:09:50.302Z,27.57
2018-05-31T09:12:17.104Z,27.76
2018-05-31T09:14:44.460Z,27.69
2018-05-31T09:17:11.813Z,27.86
2018-05-31T09:19:38.983Z,28.16
2018-05-31T09:22:05.378Z,27.98
2018-05-31T09:24:31.717Z,28.18
2018-05-31T09:26:58.871Z,27.59
2018-05-31T09:29:26.204Z,27.94
2018-05-31T09:31:52.603Z,28.51
2018-05-31T09:34:18.988Z,28.36
2018-05-31T09:36:46.198Z,28.71
2018-05-31T09:39:12.604Z,28.48
2018-05-31T09:41:39.037Z,28.62
2018-05-31T09:44:05.519Z,28.94
2018-05-31T09:46:31.905Z,29.07
2018-05-31T09:48:58.311Z,29.14
2018-05-31T09:51:25.180Z,29.08
2018-05-31T09:53:51.547Z,29.63
2018-05-31T09:56:18.013Z,29.80
2018-05-31T09:58:45.183Z,30.29
2018-05-31T10:01:11.613Z,29.96
2018-05-31T10:03:37.985Z,30.49
2018-05-31T10:06:04.438Z,30.83
2018-05-31T10:08:30.949Z,30.38
2018-05-31T10:10:57.635Z,30.21
2018-05-31T10:13:25.449Z,30.38
2018-05-31T10:15:51.826Z,30.48
2018-05-31T10:18:18.959Z,30.62
2018-05-31T10:20:45.357Z,30.65
2018-05-31T10:23:11.739Z,30.97
2018-05-31T10:25:38.878Z,30.84
2018-05-31T10:28:05.323Z,31.66
2018-05-31T10:30:32.687Z,31.26
2018-05-31T10:32:59.853Z,31.38
2018-05-31T10:35:26.470Z,31.33
2018-05-31T10:37:53.637Z,31.03
2018-05-31T10:40:20.093Z,31.22
2018-05-31T10:42:46.540Z,31.25
2018-05-31T10:45:12.929Z,31.33
2018-05-31T10:47:39.393Z,31.55
2018-05-31T10:50:05.756Z,31.20
2018-05-31T10:52:32.149Z,30.84
2018-05-31T10:54:58.519Z,31.10
2018-05-31T10:57:24.887Z,31.09
2018-05-31T10:59:51.283Z,31.22
2018-05-31T11:02:17.926Z,31.86
2018-05-31T11:04:44.283Z,31.73
2018-05-31T11:07:11.439Z,31.81
2018-05-31T11:09:37.867Z,32.15
2018-05-31T11:12:04.977Z,31.88
2018-05-31T11:14:31.381Z,31.99
2018-05-31T11:16:57.829Z,31.79
2018-05-31T11:19:24.229Z,32.16
2018-05-31T11:21:50.591Z,32.34
2018-05-31T11:24:16.950Z,32.49
2018-05-31T11:26:43.365Z,32.61
2018-05-31T11:29:09.755Z,32.15
2018-05-31T11:31:36.148Z,31.27
2018-05-31T11:34:02.621Z,30.38
2018-05-31T11:36:29.245Z,30.05
2018-05-31T11:38:55.699Z,30.22
2018-05-31T11:41:22.074Z,30.38
2018-05-31T11:43:48.406Z,30.17
2018-05-31T11:46:14.787Z,30.69
2018-05-31T11:48:41.177Z,30.50
2018-05-31T11:51:07.836Z,30.86
2018-05-31T11:53:35.081Z,31.71
2018-05-31T11:56:02.211Z,31.64
2018-05-31T11:58:28.844Z,32.08
2018-05-31T12:00:55.493Z,32.66
2018-05-31T12:03:21.884Z,32.23
2018-05-31T12:05:48.303Z,31.80
2018-05-31T12:08:14.803Z,32.32
2018-05-31T12:10:41.123Z,32.40
2018-05-31T12:13:07.482Z,33.27
2018-05-31T12:15:33.857Z,33.28
2018-05-31T12:18:00.297Z,33.22
2018-05-31T12:20:26.672Z,33.25
2018-05-31T12:22:53.798Z,33.22
2018-05-31T12:25:20.236Z,33.27
2018-05-31T12:27:46.585Z,32.91
2018-05-31T12:30:13.722Z,32.43
2018-05-31T12:32:40.841Z,32.55
2018-05-31T12:35:07.181Z,32.00
2018-05-31T12:37:33.606Z,32.21
2018-05-31T12:40:00.288Z,32.71
2018-05-31T12:42:26.813Z,33.26
2018-05-31T12:44:54.276Z,33.19
2018-05-31T12:47:21.373Z,32.35
2018-05-31T12:49:47.797Z,32.00
2018-05-31T12:52:14.172Z,31.74
2018-05-31T12:54:41.297Z,32.29
2018-05-31T12:57:07.675Z,32.67
2018-05-31T12:59:34.075Z,32.94
2018-05-31T13:02:00.739Z,33.20
2018-05-31T13:04:27.883Z,32.85
2018-05-31T13:06:54.999Z,32.48
2018-05-31T13:09:21.450Z,32.31
2018-05-31T13:11:47.852Z,32.44
2018-05-31T13:14:14.248Z,32.92
2018-05-31T13:16:40.612Z,33.20
2018-05-31T13:19:07.278Z,32.44
2018-05-31T13:21:33.792Z,31.17
2018-05-31T13:24:00.171Z,30.09
2018-05-31T13:26:27.283Z,30.18
2018-05-31T13:28:53.680Z,29.73
2018-05-31T13:31:20.039Z,29.44
2018-05-31T13:33:47.606Z,30.05
2018-05-31T13:36:14.060Z,31.01
2018-05-31T13:38:41.157Z,32.32
2018-05-31T13:41:07.661Z,32.40
2018-05-31T13:43:34.125Z,32.65
2018-05-31T13:46:00.535Z,31.85
2018-05-31T13:48:27.136Z,30.80
2018-05-31T13:50:53.667Z,29.47
2018-05-31T13:53:20.284Z,28.45
2018-05-31T13:55:46.934Z,29.85
2018-05-31T13:58:13.425Z,30.93
2018-05-31T14:00:39.992Z,29.67
2018-05-31T14:03:06.489Z,29.81
2018-05-31T14:05:33.145Z,30.70
2018-05-31T14:07:59.511Z,30.47
2018-05-31T14:10:26.214Z,29.03
2018-05-31T14:12:52.577Z,27.98
2018-05-31T14:15:19.120Z,27.10
2018-05-31T14:17:45.471Z,27.10
2018-05-31T14:20:12.624Z,26.92
2018-05-31T14:22:39.949Z,27.25
2018-05-31T14:25:06.350Z,27.57
2018-05-31T14:27:32.810Z,29.31
2018-05-31T14:29:59.391Z,31.68
2018-05-31T14:32:26.260Z,33.77
2018-05-31T14:34:52.801Z,34.87
2018-05-31T14:37:19.327Z,35.61
2018-05-31T14:39:45.741Z,35.81
2018-05-31T14:42:12.372Z,33.60
2018-05-31T14:44:38.731Z,31.93
2018-05-31T14:47:05.263Z,30.44
2018-05-31T14:49:31.657Z,29.35
2018-05-31T14:51:58.776Z,28.65
2018-05-31T14:54:25.374Z,28.78
2018-05-31T14:56:51.804Z,28.89
2018-05-31T14:59:18.103Z,30.29
2018-05-31T15:01:45.194Z,31.24
2018-05-31T15:04:12.179Z,33.21
2018-05-31T15:06:38.551Z,33.26
2018-05-31T15:09:05.025Z,33.87
2018-05-31T15:11:31.581Z,32.18
2018-05-31T15:13:58.732Z,31.02
2018-05-31T15:16:25.101Z,29.70
2018-05-31T15:18:51.671Z,30.46
2018-05-31T15:21:18.018Z,32.37
2018-05-31T15:23:44.393Z,33.96
2018-05-31T15:26:17.762Z,33.34
2018-05-31T15:28:44.887Z,33.22
2018-05-31T15:31:11.293Z,33.36
2018-05-31T15:33:37.869Z,33.12
2018-05-31T15:36:05.071Z,32.79
2018-05-31T15:38:31.544Z,32.94
2018-05-31T15:40:58.157Z,31.15
2018-05-31T15:43:24.742Z,30.01
2018-05-31T15:45:51.888Z,29.59
2018-05-31T15:48:19.069Z,29.31
2018-05-31T15:50:45.519Z,29.53
2018-05-31T15:53:11.961Z,29.33
2018-05-31T15:55:39.981Z,29.55
2018-05-31T15:58:07.132Z,29.61
2018-05-31T16:00:34.282Z,29.70
2018-05-31T16:03:01.648Z,29.88
2018-05-31T16:05:29.980Z,29.98
2018-05-31T16:07:56.855Z,30.23
2018-05-31T16:10:23.988Z,30.06
2018-05-31T16:12:51.501Z,29.86
2018-05-31T16:15:18.214Z,29.48
2018-05-31T16:17:45.381Z,29.16
2018-05-31T16:20:11.925Z,28.77
2018-05-31T16:22:38.449Z,29.16
2018-05-31T16:25:04.821Z,29.28
2018-05-31T16:27:31.257Z,29.01
2018-05-31T16:29:58.562Z,28.75
2018-05-31T16:32:25.172Z,28.70
2018-05-31T16:34:52.402Z,28.61
2018-05-31T16:37:19.150Z,28.71
2018-05-31T16:39:45.991Z,29.19
2018-05-31T16:42:12.377Z,29.82
2018-05-31T16:44:39.477Z,30.29
2018-05-31T16:47:06.282Z,30.23
2018-05-31T16:49:32.705Z,30.38
2018-05-31T16:51:59.090Z,29.49
2018-05-31T16:54:26.340Z,30.10
2018-05-31T16:56:53.887Z,30.72
2018-05-31T16:59:21.013Z,31.05
2018-05-31T17:01:47.476Z,32.01
2018-05-31T17:04:13.940Z,33.83
2018-05-31T17:06:40.313Z,35.46
2018-05-31T17:09:06.943Z,35.75
2018-05-31T17:11:33.596Z,35.98
2018-05-31T17:13:59.990Z,35.57
2018-05-31T17:16:27.033Z,36.79
2018-05-31T17:18:54.265Z,36.63
2018-05-31T17:21:20.735Z,36.06
2018-05-31T17:23:47.120Z,35.74
2018-05-31T17:26:14.626Z,35.25
2018-05-31T17:28:42.326Z,34.76
2018-05-31T17:31:08.756Z,35.47
2018-05-31T17:33:35.669Z,34.65
2018-05-31T17:36:02.067Z,33.98
2018-05-31T17:38:29.247Z,32.43
2018-05-31T17:40:55.672Z,31.37
2018-05-31T17:43:22.124Z,30.07
2018-05-31T17:45:49.277Z,29.25
2018-05-31T17:48:16.712Z,28.64
2018-05-31T17:50:43.092Z,28.62
2018-05-31T17:53:09.454Z,28.16
2018-05-31T17:55:35.857Z,27.88
2018-05-31T17:58:03.022Z,27.65
2018-05-31T18:00:30.377Z,27.30
2018-05-31T18:02:57.508Z,27.20
2018-05-31T18:05:23.967Z,27.26
2018-05-31T18:07:50.455Z,27.01
2018-05-31T18:10:18.161Z,26.83
2018-05-31T18:12:45.286Z,26.66
2018-05-31T18:15:11.783Z,26.40
2018-05-31T18:17:38.261Z,26.35
2018-05-31T18:20:04.925Z,26.35
2018-05-31T18:22:31.380Z,26.38
2018-05-31T18:24:57.778Z,26.45
2018-05-31T18:27:25.079Z,26.43
2018-05-31T18:29:51.478Z,26.40
2018-05-31T18:32:17.933Z,26.34
2018-05-31T18:34:44.322Z,26.16
2018-05-31T18:37:10.932Z,26.02
2018-05-31T18:39:38.381Z,26.00
2018-05-31T18:42:05.104Z,26.09
2018-05-31T18:44:31.506Z,26.04
2018-05-31T18:46:57.914Z,25.96
2018-05-31T18:49:24.668Z,25.85
2018-05-31T18:51:51.326Z,25.81
2018-05-31T18:54:18.242Z,25.86
2018-05-31T18:56:46.163Z,25.76
2018-05-31T18:59:14.341Z,25.65
2018-05-31T19:01:41.172Z,25.45
2018-05-31T19:04:07.589Z,25.48
2018-05-31T19:06:34.128Z,25.36
2018-05-31T19:09:00.778Z,25.41
2018-05-31T19:11:27.650Z,25.42
2018-05-31T19:13:58.355Z,25.44
2018-05-31T19:16:24.886Z,25.44
2018-05-31T19:18:58.389Z,25.33
2018-05-31T19:21:25.009Z,25.23
2018-05-31T19:23:51.728Z,25.27
2018-05-31T19:26:18.177Z,25.18
2018-05-31T19:28:44.633Z,25.06
2018-05-31T19:31:11.976Z,25.08
2018-05-31T19:33:38.488Z,25.12
2018-05-31T19:36:11.079Z,25.07
2018-05-31T19:38:37.707Z,24.98
2018-05-31T19:41:04.115Z,24.97
2018-05-31T19:43:37.344Z,24.97
2018-05-31T19:46:03.724Z,24.95
2018-05-31T19:48:30.598Z,24.88
2018-05-31T19:50:57.749Z,25.01
2018-05-31T19:53:30.966Z,24.95
2018-05-31T19:55:57.435Z,24.95
2018-05-31T19:58:29.884Z,24.85
2018-05-31T20:01:02.375Z,24.88
2018-05-31T20:03:28.767Z,24.93
2018-05-31T20:05:55.144Z,24.82
2018-05-31T20:08:21.674Z,24.82
2018-05-31T20:10:48.240Z,24.73
2018-05-31T20:13:15.772Z,24.70
2018-05-31T20:15:43.031Z,24.68
2018-05-31T20:18:10.766Z,24.65
2018-05-31T20:20:38.950Z,24.63
2018-05-31T20:23:05.788Z,24.67
2018-05-31T20:25:32.378Z,24.74
2018-05-31T20:27:59.980Z,24.82
2018-05-31T20:30:26.595Z,24.83
2018-05-31T20:32:56.539Z,24.94
2018-05-31T20:35:23.967Z,24.77
2018-05-31T20:37:50.386Z,24.83
2018-05-31T20:40:17.889Z,24.75
2018-05-31T20:42:44.257Z,24.86
2018-05-31T20:45:10.928Z,24.82
2018-05-31T20:47:37.741Z,24.79
2018-05-31T20:50:04.860Z,24.75
2018-05-31T20:52:31.482Z,24.78
2018-05-31T20:54:57.989Z,24.75
2018-05-31T20:57:24.465Z,24.70
2018-05-31T20:59:50.934Z,24.63
2018-05-31T21:02:17.321Z,24.61
2018-05-31T21:04:44.051Z,24.61
2018-05-31T21:07:11.159Z,24.69
2018-05-31T21:09:37.641Z,24.69
2018-05-31T21:12:04.103Z,24.66
2018-05-31T21:14:30.577Z,24.64
2018-05-31T21:16:56.942Z,24.67
2018-05-31T21:19:23.375Z,24.67
2018-05-31T21:21:50.799Z,24.64
2018-05-31T21:24:17.207Z,24.68
2018-05-31T21:26:44.327Z,24.58
2018-05-31T21:29:10.959Z,24.56
2018-05-31T21:31:37.313Z,24.55
2018-05-31T21:34:05.836Z,24.52
2018-05-31T21:36:32.201Z,24.56
2018-05-31T21:38:58.640Z,24.67
2018-05-31T21:41:25.181Z,24.58
2018-05-31T21:43:51.572Z,24.66
2018-05-31T21:46:17.922Z,24.69
2018-05-31T21:48:44.410Z,24.64
2018-05-31T21:51:11.640Z,24.50
2018-05-31T21:53:38.058Z,24.41
2018-05-31T21:56:04.471Z,24.44
2018-05-31T21:58:30.851Z,24.20
2018-05-31T22:00:57.976Z,24.32
2018-05-31T22:03:24.746Z,24.23
2018-05-31T22:05:52.201Z,24.04
2018-05-31T22:08:19.404Z,23.03
2018-05-31T22:10:45.899Z,20.84
2018-05-31T22:13:12.327Z,20.22
2018-05-31T22:15:38.794Z,19.33
2018-05-31T22:18:05.237Z,18.89
2018-05-31T22:20:31.658Z,18.57
2018-05-31T22:22:58.117Z,18.47
2018-05-31T22:25:25.897Z,18.26
2018-05-31T22:27:53.036Z,18.12
2018-05-31T22:30:20.235Z,17.93
2018-05-31T22:32:46.616Z,17.96
2018-05-31T22:35:13.030Z,17.89
2018-05-31T22:37:39.426Z,17.99
2018-05-31T22:40:05.953Z,17.88
2018-05-31T22:42:32.431Z,17.81
2018-05-31T22:44:58.801Z,17.71
2018-05-31T22:47:25.925Z,17.66
2018-05-31T22:49:53.071Z,17.64
2018-05-31T22:52:19.468Z,17.67
2018-05-31T22:54:45.869Z,17.60
2018-05-31T22:57:12.250Z,17.53
2018-05-31T22:59:46.174Z,17.55
2018-05-31T23:02:12.571Z,17.60
2018-05-31T23:04:38.955Z,17.63
2018-05-31T23:07:06.077Z,17.69
2018-05-31T23:09:32.460Z,17.89
2018-05-31T23:11:58.832Z,17.97
2018-05-31T23:14:27.331Z,18.08
2018-05-31T23:16:54.825Z,18.09
2018-05-31T23:19:22.272Z,18.14
2018-05-31T23:21:48.685Z,17.99
2018-05-31T23:24:16.574Z,17.77
2018-05-31T23:26:43.816Z,17.81
2018-05-31T23:29:10.948Z,17.75
2018-05-31T23:31:37.341Z,17.69
2018-05-31T23:34:03.707Z,17.57
2018-05-31T23:36:31.617Z,17.61
2018-05-31T23:38:58.255Z,17.76
2018-05-31T23:41:25.385Z,17.84
2018-05-31T23:43:52.573Z,17.89
2018-05-31T23:46:19.151Z,17.93
2018-05-31T23:48:45.549Z,17.99
2018-05-31T23:51:11.946Z,18.15
2018-05-31T23:53:39.410Z,18.17
2018-05-31T23:56:05.798Z,18.12
2018-05-31T23:58:32.158Z,18.19
